Laguna Beach, CA (92651)

1:46 AM PDT on September 02, 2014 (GMT -0700)
North Laguna Beach | Change Station
CLOSE
Current Station
Personal Weather Station
Location: Laguna Beach, CA
Elevation: 139 ft
Nearby Weather Stations

Elev 139 ft 33.55 °N, 117.78 °W | Updated 43 seconds ago

Overcast
Overcast
69.4 °F
Feels Like 69.4 °F
N
0.0
Wind Variable Wind from ESE
Gusts 8.0 mph

Today
High -- | Low -- °F
--% Chance of Precip.
Yesterday
High -- | Low -- °F
Precip. -- in
6:25 AM 7:15 PM
Waxing Crescent, 49% visible
Pressure 29.83 in
Visibility 10.0 miles
Clouds Overcast 1500 ft
Dew Point 65 °F
Humidity 86%
Rainfall 0.00 in
Snow Depth Not available.
UV 0 out of 12
Pollen 7.80 out of 12
Ozone Good
Flu Activity Not available.
METAR KSNA 020753Z AUTO 11007KT 10SM OVC015 22/17 A2984 RMK AO2 SLP102 T02220172 402780217 TSNO

More Conditions Fewer Conditions

Pressure 29.83 in
Visibility 10.0 miles
Clouds Overcast 1500 ft
Dew Point 65 °F
Humidity 86%
Rainfall 0.00 in
Snow Depth Not available.
UV 0 out of 12
Pollen 7.80 out of 12
Ozone Good
Flu Activity Not available.
METAR KSNA 020753Z AUTO 11007KT 10SM OVC015 22/17 A2984 RMK AO2 SLP102 T02220172 402780217 TSNO

More Conditions Fewer Conditions

10-Day Weather Forecast

Almanac

Astronomy

Sep. 02, 2014 Rise Set
Actual Time 6:25 AM PDT 7:15 PM PDT
Civil Twilight 6:00 AM PDT 7:40 PM PDT
Nautical Twilight 5:30 AM PDT 8:10 PM PDT
Astronomical Twilight 4:59 AM PDT 8:40 PM PDT
Moon 1:54 PM PDT No Moon Set
Length of Visible Light 13h 39m
Length of Day
12h 49m
Tomorrow will be 2m 0s shorter.
Waxing Crescent, 49% of the Moon is Illuminated
Today
Waxing Crescent
Sep 2
First Quarter
Sep 8
Full
Sep 15
Last Quarter
Sep 24
New

Today's Extremes

State Highs State Lows

Community

WunderPhotos

Upload Photos

1,749,587 photos uploaded!

WunderBlogs® & News

Nearby

Air Quality

  Air Quality AQ Index Pollutant
Yesterday Good
OZONE
Current Good
OZONE
Tuesday Good
PM10
Tuesday Good
OZONE
Tuesday Good
CO
Tuesday Good
NO2

Snow Depth

Station Depth Elevation
Leavitt Lake 0 in 9400 ft
Leavitt Meadows 1 in 7200 ft
Summit Meadow 0 in 9122 ft
Monitor Pass 0 in 8350 ft
Blue Lakes 0 in 8000 ft

Earthquake Activity

City Distance Mag. Time & Date
Malibu, California 76 miles 2.5 8:11 AM PDT
2014-08-30
Minimum magnitude displayed is 2.5.

Coastal Water Temperatures

Place Temperature
Santa Monica Pier 72.0 °F
Los Angeles, CA 71.1 °F
La Jolla, CA 69.1 °F

Nearby Weather Stations